Portada
METAR-TAF:

METAR-TAF

Aeroports :

Nassau, Bahames

latitud: 25-03N, longitud: 077-28W, altitud: 3 m

Observació

L'informe es va fer fa 27 minuts, a les 14:00 UTC
Vent 8 kt del Sud
Temperatura 29°C
Humitat 74%
Pressió 1016 hPa
Visibilitat 10 km o més
Núvols disperses a una alçada de 2000 ft

METAR: MYNN 301400Z 18008KT 9999 SCT020 29/24 A2999

Hora: 10:27 (14:27 UTC)

Pronòstic

L'informe es va fer fa 3 hores i 27 minuts, a les 11:00 UTC
Pronòstic vàlid del 30 a les 12 UTC al 31 a les 12 UTC
Vent 7 kt del Sud
Visibilitat 10 km o més
Escasses núvols a una alçada de 2500 ft
Probabilitat 30% :
Temporalment
l' 31 a les 06 UTC al 31 a les 09 UTC
Vent 8 kt del Oest
Visibilitat 10 km o més
Núvols disperses a una alçada de 1800 ft, Cumulonimbus.
xàfecs de pluja

TAF: MYNN 301100Z 3012/3112 19007KT 9999 FEW025 PROB30 TEMPO 3106/3109 27008KT 9999 SHRA SCT018CB

Observacions i pronòstics meteorològics de més de 4000 aeroports (METAR i TAF).

Les estacions disponibles són els punts grocs i vermells al mapa.

Posi el ratolí al punt desitjat per veure el nom de l'estació.

Feu clic per veure les observacions i els pronòstics meteorològics.

Per canviar el mapa: feu clic els botons verds amb una creu de color negre per apropar; al botó verd amb un guió per allunyar la imatge; o en les fletxes verdes per a mapes adjacents.


METAR-TAF: